sensor_id;sensor_type;location;lat;lon;timestamp;temperature;humidity
64888;DHT22;51386;53.082;8.816;2023-02-02T00:00:48;9.40;71.10
64888;DHT22;51386;53.082;8.816;2023-02-02T00:03:16;9.40;71.30
64888;DHT22;51386;53.082;8.816;2023-02-02T00:05:47;9.30;71.20
64888;DHT22;51386;53.082;8.816;2023-02-02T00:08:15;9.30;71.40
64888;DHT22;51386;53.082;8.816;2023-02-02T00:10:42;9.30;71.50
64888;DHT22;51386;53.082;8.816;2023-02-02T00:13:10;9.30;71.50
64888;DHT22;51386;53.082;8.816;2023-02-02T00:15:37;9.30;71.50
64888;DHT22;51386;53.082;8.816;2023-02-02T00:18:05;9.30;71.50
64888;DHT22;51386;53.082;8.816;2023-02-02T00:20:33;9.40;71.80
64888;DHT22;51386;53.082;8.816;2023-02-02T00:23:00;9.30;71.70
64888;DHT22;51386;53.082;8.816;2023-02-02T00:25:28;9.40;71.80
64888;DHT22;51386;53.082;8.816;2023-02-02T00:27:55;9.30;71.40
64888;DHT22;51386;53.082;8.816;2023-02-02T00:30:22;9.30;71.30
64888;DHT22;51386;53.082;8.816;2023-02-02T00:32:50;9.30;71.30
64888;DHT22;51386;53.082;8.816;2023-02-02T00:35:18;9.30;71.00
64888;DHT22;51386;53.082;8.816;2023-02-02T00:37:47;9.30;70.80
64888;DHT22;51386;53.082;8.816;2023-02-02T00:40:14;9.20;70.90
64888;DHT22;51386;53.082;8.816;2023-02-02T00:42:41;9.20;70.90
64888;DHT22;51386;53.082;8.816;2023-02-02T00:45:12;9.20;71.10
64888;DHT22;51386;53.082;8.816;2023-02-02T00:47:44;9.20;71.20
64888;DHT22;51386;53.082;8.816;2023-02-02T00:50:15;9.20;71.30
64888;DHT22;51386;53.082;8.816;2023-02-02T00:52:43;9.10;71.40
64888;DHT22;51386;53.082;8.816;2023-02-02T00:55:13;9.10;71.80
64888;DHT22;51386;53.082;8.816;2023-02-02T00:57:41;9.10;72.10
64888;DHT22;51386;53.082;8.816;2023-02-02T01:00:13;9.00;72.40
64888;DHT22;51386;53.082;8.816;2023-02-02T01:02:41;9.00;72.70
64888;DHT22;51386;53.082;8.816;2023-02-02T01:05:10;9.00;72.80
64888;DHT22;51386;53.082;8.816;2023-02-02T01:07:37;8.90;73.00
64888;DHT22;51386;53.082;8.816;2023-02-02T01:10:06;9.00;73.20
64888;DHT22;51386;53.082;8.816;2023-02-02T01:12:37;8.90;73.20
64888;DHT22;51386;53.082;8.816;2023-02-02T01:15:05;8.90;73.30
64888;DHT22;51386;53.082;8.816;2023-02-02T01:17:33;8.90;73.40
64888;DHT22;51386;53.082;8.816;2023-02-02T01:20:00;8.90;73.90
64888;DHT22;51386;53.082;8.816;2023-02-02T01:22:27;8.80;74.20
64888;DHT22;51386;53.082;8.816;2023-02-02T01:24:54;8.80;74.30
64888;DHT22;51386;53.082;8.816;2023-02-02T01:27:21;8.70;74.30
64888;DHT22;51386;53.082;8.816;2023-02-02T01:29:49;8.70;74.40
64888;DHT22;51386;53.082;8.816;2023-02-02T01:32:16;8.70;74.60
64888;DHT22;51386;53.082;8.816;2023-02-02T01:34:43;8.70;74.70
64888;DHT22;51386;53.082;8.816;2023-02-02T01:37:10;8.60;74.80
64888;DHT22;51386;53.082;8.816;2023-02-02T01:39:37;8.60;75.00
64888;DHT22;51386;53.082;8.816;2023-02-02T01:42:11;8.60;75.10
64888;DHT22;51386;53.082;8.816;2023-02-02T01:45:03;8.60;75.30
64888;DHT22;51386;53.082;8.816;2023-02-02T01:47:42;8.60;75.70
64888;DHT22;51386;53.082;8.816;2023-02-02T01:50:14;8.60;75.60
64888;DHT22;51386;53.082;8.816;2023-02-02T01:52:45;8.60;75.60
64888;DHT22;51386;53.082;8.816;2023-02-02T01:55:18;8.60;75.60
64888;DHT22;51386;53.082;8.816;2023-02-02T01:57:52;8.60;75.70
64888;DHT22;51386;53.082;8.816;2023-02-02T02:00:23;8.60;75.70
64888;DHT22;51386;53.082;8.816;2023-02-02T02:02:56;8.60;75.90
64888;DHT22;51386;53.082;8.816;2023-02-02T02:05:28;8.70;75.90
64888;DHT22;51386;53.082;8.816;2023-02-02T02:08:04;8.70;75.80
64888;DHT22;51386;53.082;8.816;2023-02-02T02:10:37;8.70;75.70
64888;DHT22;51386;53.082;8.816;2023-02-02T02:13:04;8.70;75.70
64888;DHT22;51386;53.082;8.816;2023-02-02T02:15:38;8.70;75.50
64888;DHT22;51386;53.082;8.816;2023-02-02T02:18:34;8.70;75.40
64888;DHT22;51386;53.082;8.816;2023-02-02T02:21:26;8.70;75.20
64888;DHT22;51386;53.082;8.816;2023-02-02T02:28:43;8.70;75.30
64888;DHT22;51386;53.082;8.816;2023-02-02T02:34:39;8.60;75.50
64888;DHT22;51386;53.082;8.816;2023-02-02T02:37:18;8.50;75.60
64888;DHT22;51386;53.082;8.816;2023-02-02T02:39:56;8.50;75.80
64888;DHT22;51386;53.082;8.816;2023-02-02T02:42:30;8.50;76.00
64888;DHT22;51386;53.082;8.816;2023-02-02T02:45:03;8.50;76.20
64888;DHT22;51386;53.082;8.816;2023-02-02T02:47:34;8.50;76.40
64888;DHT22;51386;53.082;8.816;2023-02-02T02:50:04;8.50;76.60
64888;DHT22;51386;53.082;8.816;2023-02-02T02:52:31;8.50;76.90
64888;DHT22;51386;53.082;8.816;2023-02-02T02:55:01;8.60;77.10
64888;DHT22;51386;53.082;8.816;2023-02-02T02:57:43;8.60;77.10
64888;DHT22;51386;53.082;8.816;2023-02-02T03:00:38;8.60;77.20
64888;DHT22;51386;53.082;8.816;2023-02-02T03:03:23;8.60;77.00
64888;DHT22;51386;53.082;8.816;2023-02-02T03:06:04;8.70;77.20
64888;DHT22;51386;53.082;8.816;2023-02-02T03:08:39;8.70;77.10
64888;DHT22;51386;53.082;8.816;2023-02-02T03:11:10;8.70;76.90
64888;DHT22;51386;53.082;8.816;2023-02-02T03:13:40;8.70;76.90
64888;DHT22;51386;53.082;8.816;2023-02-02T03:16:08;8.70;76.80
64888;DHT22;51386;53.082;8.816;2023-02-02T03:18:37;8.70;77.00
64888;DHT22;51386;53.082;8.816;2023-02-02T03:21:05;8.70;77.00
64888;DHT22;51386;53.082;8.816;2023-02-02T03:23:32;8.70;77.00
64888;DHT22;51386;53.082;8.816;2023-02-02T03:26:00;8.70;77.00
64888;DHT22;51386;53.082;8.816;2023-02-02T03:28:27;8.70;76.90
64888;DHT22;51386;53.082;8.816;2023-02-02T03:30:57;8.70;76.80
64888;DHT22;51386;53.082;8.816;2023-02-02T03:33:27;8.70;76.80
64888;DHT22;51386;53.082;8.816;2023-02-02T03:35:55;8.70;76.70
64888;DHT22;51386;53.082;8.816;2023-02-02T03:38:22;8.60;76.70
64888;DHT22;51386;53.082;8.816;2023-02-02T03:40:49;8.60;76.70
64888;DHT22;51386;53.082;8.816;2023-02-02T03:43:19;8.60;76.80
64888;DHT22;51386;53.082;8.816;2023-02-02T03:45:47;8.60;76.80
64888;DHT22;51386;53.082;8.816;2023-02-02T03:48:14;8.60;76.80
64888;DHT22;51386;53.082;8.816;2023-02-02T03:50:41;8.50;76.90
64888;DHT22;51386;53.082;8.816;2023-02-02T03:53:09;8.50;76.90
64888;DHT22;51386;53.082;8.816;2023-02-02T03:55:36;8.40;77.10
64888;DHT22;51386;53.082;8.816;2023-02-02T03:58:06;8.40;77.20
64888;DHT22;51386;53.082;8.816;2023-02-02T04:00:33;8.30;77.30
64888;DHT22;51386;53.082;8.816;2023-02-02T04:03:00;8.30;77.50
64888;DHT22;51386;53.082;8.816;2023-02-02T04:05:27;8.20;77.50
64888;DHT22;51386;53.082;8.816;2023-02-02T04:07:54;8.20;77.80
64888;DHT22;51386;53.082;8.816;2023-02-02T04:10:22;8.10;77.80
64888;DHT22;51386;53.082;8.816;2023-02-02T04:12:49;8.10;78.00
64888;DHT22;51386;53.082;8.816;2023-02-02T04:15:16;8.10;78.20
64888;DHT22;51386;53.082;8.816;2023-02-02T04:17:43;8.00;78.30
64888;DHT22;51386;53.082;8.816;2023-02-02T04:20:11;8.00;78.40
64888;DHT22;51386;53.082;8.816;2023-02-02T04:22:38;8.00;78.50
64888;DHT22;51386;53.082;8.816;2023-02-02T04:25:05;8.00;78.70
64888;DHT22;51386;53.082;8.816;2023-02-02T04:27:34;7.90;78.60
64888;DHT22;51386;53.082;8.816;2023-02-02T04:30:01;7.90;78.60
64888;DHT22;51386;53.082;8.816;2023-02-02T04:32:29;7.90;78.70
64888;DHT22;51386;53.082;8.816;2023-02-02T04:34:56;7.90;78.80
64888;DHT22;51386;53.082;8.816;2023-02-02T04:37:23;7.90;78.80
64888;DHT22;51386;53.082;8.816;2023-02-02T04:39:50;7.90;79.00
64888;DHT22;51386;53.082;8.816;2023-02-02T04:42:16;7.80;78.90
64888;DHT22;51386;53.082;8.816;2023-02-02T04:44:45;7.90;78.90
64888;DHT22;51386;53.082;8.816;2023-02-02T04:47:12;7.80;78.80
64888;DHT22;51386;53.082;8.816;2023-02-02T04:49:39;7.80;79.00
64888;DHT22;51386;53.082;8.816;2023-02-02T04:52:06;7.80;79.00
64888;DHT22;51386;53.082;8.816;2023-02-02T04:54:33;7.80;79.00
64888;DHT22;51386;53.082;8.816;2023-02-02T04:57:00;7.80;79.10
64888;DHT22;51386;53.082;8.816;2023-02-02T04:59:27;7.80;79.10
64888;DHT22;51386;53.082;8.816;2023-02-02T05:01:58;7.80;79.10
64888;DHT22;51386;53.082;8.816;2023-02-02T05:04:25;7.80;79.20
64888;DHT22;51386;53.082;8.816;2023-02-02T05:06:53;7.80;79.20
64888;DHT22;51386;53.082;8.816;2023-02-02T05:09:20;7.70;79.10
64888;DHT22;51386;53.082;8.816;2023-02-02T05:11:46;7.70;79.20
64888;DHT22;51386;53.082;8.816;2023-02-02T05:14:13;7.80;79.40
64888;DHT22;51386;53.082;8.816;2023-02-02T05:16:44;7.70;79.20
64888;DHT22;51386;53.082;8.816;2023-02-02T05:19:12;7.70;79.10
64888;DHT22;51386;53.082;8.816;2023-02-02T05:21:42;7.80;79.30
64888;DHT22;51386;53.082;8.816;2023-02-02T05:24:10;7.70;79.30
64888;DHT22;51386;53.082;8.816;2023-02-02T05:26:38;7.70;79.40
64888;DHT22;51386;53.082;8.816;2023-02-02T05:29:05;7.70;79.40
64888;DHT22;51386;53.082;8.816;2023-02-02T05:31:33;7.70;79.30
64888;DHT22;51386;53.082;8.816;2023-02-02T05:34:00;7.70;79.30
64888;DHT22;51386;53.082;8.816;2023-02-02T05:36:28;7.70;79.30
64888;DHT22;51386;53.082;8.816;2023-02-02T05:38:55;7.80;79.30
64888;DHT22;51386;53.082;8.816;2023-02-02T05:41:22;7.80;79.20
64888;DHT22;51386;53.082;8.816;2023-02-02T05:43:49;7.70;79.10
64888;DHT22;51386;53.082;8.816;2023-02-02T05:46:16;7.70;79.20
64888;DHT22;51386;53.082;8.816;2023-02-02T05:48:43;7.70;79.30
64888;DHT22;51386;53.082;8.816;2023-02-02T05:51:13;7.70;79.60
64888;DHT22;51386;53.082;8.816;2023-02-02T05:53:43;7.70;79.60
64888;DHT22;51386;53.082;8.816;2023-02-02T05:56:11;7.70;79.60
64888;DHT22;51386;53.082;8.816;2023-02-02T05:58:38;7.70;79.80
64888;DHT22;51386;53.082;8.816;2023-02-02T06:01:05;7.70;79.80
64888;DHT22;51386;53.082;8.816;2023-02-02T06:03:32;7.60;80.00
64888;DHT22;51386;53.082;8.816;2023-02-02T06:06:00;7.60;80.10
64888;DHT22;51386;53.082;8.816;2023-02-02T06:08:27;7.60;80.20
64888;DHT22;51386;53.082;8.816;2023-02-02T06:10:55;7.60;80.60
64888;DHT22;51386;53.082;8.816;2023-02-02T06:13:22;7.60;80.70
64888;DHT22;51386;53.082;8.816;2023-02-02T06:15:49;7.60;80.90
64888;DHT22;51386;53.082;8.816;2023-02-02T06:18:16;7.60;81.10
64888;DHT22;51386;53.082;8.816;2023-02-02T06:20:43;7.60;81.00
64888;DHT22;51386;53.082;8.816;2023-02-02T06:23:11;7.60;81.30
64888;DHT22;51386;53.082;8.816;2023-02-02T06:25:38;7.60;81.40
64888;DHT22;51386;53.082;8.816;2023-02-02T06:28:07;7.60;81.60
64888;DHT22;51386;53.082;8.816;2023-02-02T06:30:35;7.60;81.70
64888;DHT22;51386;53.082;8.816;2023-02-02T06:33:01;7.60;81.90
64888;DHT22;51386;53.082;8.816;2023-02-02T06:35:28;7.70;82.20
64888;DHT22;51386;53.082;8.816;2023-02-02T06:37:56;7.70;82.20
64888;DHT22;51386;53.082;8.816;2023-02-02T06:40:23;7.70;82.10
64888;DHT22;51386;53.082;8.816;2023-02-02T06:42:55;7.70;82.10
64888;DHT22;51386;53.082;8.816;2023-02-02T06:45:24;7.70;82.30
64888;DHT22;51386;53.082;8.816;2023-02-02T06:47:52;7.70;82.30
64888;DHT22;51386;53.082;8.816;2023-02-02T06:50:19;7.70;82.40
64888;DHT22;51386;53.082;8.816;2023-02-02T06:52:46;7.70;82.60
64888;DHT22;51386;53.082;8.816;2023-02-02T06:55:14;7.70;82.50
64888;DHT22;51386;53.082;8.816;2023-02-02T06:57:42;7.70;82.70
64888;DHT22;51386;53.082;8.816;2023-02-02T07:00:10;7.70;82.70
64888;DHT22;51386;53.082;8.816;2023-02-02T07:02:43;7.70;82.70
64888;DHT22;51386;53.082;8.816;2023-02-02T07:05:11;7.80;82.80
64888;DHT22;51386;53.082;8.816;2023-02-02T07:07:38;7.80;83.00
64888;DHT22;51386;53.082;8.816;2023-02-02T07:10:05;7.80;83.10
64888;DHT22;51386;53.082;8.816;2023-02-02T07:12:33;7.70;82.90
64888;DHT22;51386;53.082;8.816;2023-02-02T07:15:00;7.80;82.80
64888;DHT22;51386;53.082;8.816;2023-02-02T07:17:27;7.80;82.90
64888;DHT22;51386;53.082;8.816;2023-02-02T07:19:55;7.80;82.90
64888;DHT22;51386;53.082;8.816;2023-02-02T07:22:22;7.80;83.20
64888;DHT22;51386;53.082;8.816;2023-02-02T07:24:49;7.80;83.30
64888;DHT22;51386;53.082;8.816;2023-02-02T07:27:16;7.80;83.40
64888;DHT22;51386;53.082;8.816;2023-02-02T07:29:43;7.80;83.60
64888;DHT22;51386;53.082;8.816;2023-02-02T07:32:10;7.80;83.60
64888;DHT22;51386;53.082;8.816;2023-02-02T07:34:39;7.80;83.60
64888;DHT22;51386;53.082;8.816;2023-02-02T07:37:09;7.90;83.70
64888;DHT22;51386;53.082;8.816;2023-02-02T07:39:36;7.90;83.60
64888;DHT22;51386;53.082;8.816;2023-02-02T07:42:05;7.90;83.70
64888;DHT22;51386;53.082;8.816;2023-02-02T07:44:35;7.90;83.80
64888;DHT22;51386;53.082;8.816;2023-02-02T07:47:02;7.90;84.00
64888;DHT22;51386;53.082;8.816;2023-02-02T07:49:28;7.90;84.00
64888;DHT22;51386;53.082;8.816;2023-02-02T07:51:57;8.00;83.90
64888;DHT22;51386;53.082;8.816;2023-02-02T07:54:25;8.00;84.00
64888;DHT22;51386;53.082;8.816;2023-02-02T07:56:52;8.00;83.90
64888;DHT22;51386;53.082;8.816;2023-02-02T07:59:19;8.10;84.00
64888;DHT22;51386;53.082;8.816;2023-02-02T08:01:46;8.10;84.00
64888;DHT22;51386;53.082;8.816;2023-02-02T08:04:13;8.10;84.00
64888;DHT22;51386;53.082;8.816;2023-02-02T08:06:41;8.10;83.90
64888;DHT22;51386;53.082;8.816;2023-02-02T08:09:08;8.20;83.90
64888;DHT22;51386;53.082;8.816;2023-02-02T08:11:37;8.20;83.80
64888;DHT22;51386;53.082;8.816;2023-02-02T08:14:05;8.20;83.80
64888;DHT22;51386;53.082;8.816;2023-02-02T08:16:33;8.20;83.80
64888;DHT22;51386;53.082;8.816;2023-02-02T08:19:00;8.20;83.70
64888;DHT22;51386;53.082;8.816;2023-02-02T08:21:27;8.30;83.90
64888;DHT22;51386;53.082;8.816;2023-02-02T08:23:54;8.30;83.90
64888;DHT22;51386;53.082;8.816;2023-02-02T08:26:23;8.40;83.80
64888;DHT22;51386;53.082;8.816;2023-02-02T08:28:55;8.40;83.70
64888;DHT22;51386;53.082;8.816;2023-02-02T08:31:25;8.50;83.60
64888;DHT22;51386;53.082;8.816;2023-02-02T08:33:55;8.60;83.50
64888;DHT22;51386;53.082;8.816;2023-02-02T08:36:25;8.70;83.20
64888;DHT22;51386;53.082;8.816;2023-02-02T08:38:54;8.70;83.00
64888;DHT22;51386;53.082;8.816;2023-02-02T08:41:24;8.80;82.80
64888;DHT22;51386;53.082;8.816;2023-02-02T08:43:51;8.90;82.60
64888;DHT22;51386;53.082;8.816;2023-02-02T08:46:19;8.90;82.20
64888;DHT22;51386;53.082;8.816;2023-02-02T08:48:48;9.00;81.90
64888;DHT22;51386;53.082;8.816;2023-02-02T08:51:17;9.00;81.90
64888;DHT22;51386;53.082;8.816;2023-02-02T08:53:45;9.10;81.50
64888;DHT22;51386;53.082;8.816;2023-02-02T08:56:14;9.10;81.30
64888;DHT22;51386;53.082;8.816;2023-02-02T08:58:44;9.20;81.30
64888;DHT22;51386;53.082;8.816;2023-02-02T09:01:15;9.20;81.40
64888;DHT22;51386;53.082;8.816;2023-02-02T09:03:44;9.30;81.40
64888;DHT22;51386;53.082;8.816;2023-02-02T09:06:13;9.40;81.40
64888;DHT22;51386;53.082;8.816;2023-02-02T09:08:41;9.50;80.90
64888;DHT22;51386;53.082;8.816;2023-02-02T09:11:11;9.50;80.60
64888;DHT22;51386;53.082;8.816;2023-02-02T09:13:40;9.60;80.50
64888;DHT22;51386;53.082;8.816;2023-02-02T09:16:13;9.70;80.00
64888;DHT22;51386;53.082;8.816;2023-02-02T09:18:42;9.80;79.60
64888;DHT22;51386;53.082;8.816;2023-02-02T09:21:11;9.80;79.30
64888;DHT22;51386;53.082;8.816;2023-02-02T09:23:41;9.90;79.10
64888;DHT22;51386;53.082;8.816;2023-02-02T09:26:11;9.90;79.10
64888;DHT22;51386;53.082;8.816;2023-02-02T09:28:41;10.00;77.60
64888;DHT22;51386;53.082;8.816;2023-02-02T09:31:10;10.00;77.80
64888;DHT22;51386;53.082;8.816;2023-02-02T09:33:39;10.00;77.10
64888;DHT22;51386;53.082;8.816;2023-02-02T09:36:08;10.10;77.30
64888;DHT22;51386;53.082;8.816;2023-02-02T09:38:37;10.10;76.90
64888;DHT22;51386;53.082;8.816;2023-02-02T09:41:19;10.20;77.00
64888;DHT22;51386;53.082;8.816;2023-02-02T09:44:13;10.20;76.90
64888;DHT22;51386;53.082;8.816;2023-02-02T09:46:51;10.40;77.20
64888;DHT22;51386;53.082;8.816;2023-02-02T09:49:34;10.50;77.30
64888;DHT22;51386;53.082;8.816;2023-02-02T09:52:11;10.80;76.50
64888;DHT22;51386;53.082;8.816;2023-02-02T09:54:44;11.00;75.90
64888;DHT22;51386;53.082;8.816;2023-02-02T09:57:18;11.10;75.50
64888;DHT22;51386;53.082;8.816;2023-02-02T09:59:51;11.40;74.80
64888;DHT22;51386;53.082;8.816;2023-02-02T10:02:22;11.60;74.10
64888;DHT22;51386;53.082;8.816;2023-02-02T10:05:01;11.80;73.50
64888;DHT22;51386;53.082;8.816;2023-02-02T10:07:40;11.90;71.70
64888;DHT22;51386;53.082;8.816;2023-02-02T10:10:14;12.10;71.20
64888;DHT22;51386;53.082;8.816;2023-02-02T10:12:51;12.30;70.80
64888;DHT22;51386;53.082;8.816;2023-02-02T10:15:29;12.50;70.90
64888;DHT22;51386;53.082;8.816;2023-02-02T10:18:08;12.60;69.70
64888;DHT22;51386;53.082;8.816;2023-02-02T10:20:50;12.80;69.10
64888;DHT22;51386;53.082;8.816;2023-02-02T10:23:25;12.90;68.20
64888;DHT22;51386;53.082;8.816;2023-02-02T10:25:56;12.90;67.40
64888;DHT22;51386;53.082;8.816;2023-02-02T10:28:41;13.00;67.60
64888;DHT22;51386;53.082;8.816;2023-02-02T10:31:17;13.10;68.40
64888;DHT22;51386;53.082;8.816;2023-02-02T10:34:01;13.30;67.20
64888;DHT22;51386;53.082;8.816;2023-02-02T10:36:51;13.50;66.80
64888;DHT22;51386;53.082;8.816;2023-02-02T10:39:41;13.80;66.30
64888;DHT22;51386;53.082;8.816;2023-02-02T10:42:28;14.10;65.80
64888;DHT22;51386;53.082;8.816;2023-02-02T10:45:02;14.20;63.90
64888;DHT22;51386;53.082;8.816;2023-02-02T10:47:36;14.20;63.20
64888;DHT22;51386;53.082;8.816;2023-02-02T10:50:15;14.10;62.90
64888;DHT22;51386;53.082;8.816;2023-02-02T10:52:48;13.80;62.30
64888;DHT22;51386;53.082;8.816;2023-02-02T10:55:24;13.60;62.80
64888;DHT22;51386;53.082;8.816;2023-02-02T10:58:04;13.30;63.40
64888;DHT22;51386;53.082;8.816;2023-02-02T11:00:46;13.00;64.20
64888;DHT22;51386;53.082;8.816;2023-02-02T11:03:19;12.80;65.10
64888;DHT22;51386;53.082;8.816;2023-02-02T11:05:48;12.60;65.80
64888;DHT22;51386;53.082;8.816;2023-02-02T11:08:39;12.40;66.30
64888;DHT22;51386;53.082;8.816;2023-02-02T11:11:10;12.20;67.10
64888;DHT22;51386;53.082;8.816;2023-02-02T11:13:42;12.10;67.50
64888;DHT22;51386;53.082;8.816;2023-02-02T11:16:22;12.00;68.10
64888;DHT22;51386;53.082;8.816;2023-02-02T11:19:21;11.80;68.50
64888;DHT22;51386;53.082;8.816;2023-02-02T11:21:51;11.70;69.50
64888;DHT22;51386;53.082;8.816;2023-02-02T11:24:23;11.70;69.70
64888;DHT22;51386;53.082;8.816;2023-02-02T11:26:55;11.70;70.30
64888;DHT22;51386;53.082;8.816;2023-02-02T11:29:27;11.70;70.80
64888;DHT22;51386;53.082;8.816;2023-02-02T11:31:57;11.80;71.20
64888;DHT22;51386;53.082;8.816;2023-02-02T11:34:26;12.00;71.70
64888;DHT22;51386;53.082;8.816;2023-02-02T11:37:11;12.20;71.50
64888;DHT22;51386;53.082;8.816;2023-02-02T11:39:41;12.60;71.00
64888;DHT22;51386;53.082;8.816;2023-02-02T11:42:13;12.90;70.00
64888;DHT22;51386;53.082;8.816;2023-02-02T11:44:45;13.20;68.40
64888;DHT22;51386;53.082;8.816;2023-02-02T11:47:19;13.40;67.40
64888;DHT22;51386;53.082;8.816;2023-02-02T11:49:51;13.50;66.90
64888;DHT22;51386;53.082;8.816;2023-02-02T11:52:26;13.50;66.20
64888;DHT22;51386;53.082;8.816;2023-02-02T11:55:01;13.40;66.00
64888;DHT22;51386;53.082;8.816;2023-02-02T11:57:40;13.20;66.00
64888;DHT22;51386;53.082;8.816;2023-02-02T12:00:45;13.10;66.30
64888;DHT22;51386;53.082;8.816;2023-02-02T12:03:23;12.80;66.90
64888;DHT22;51386;53.082;8.816;2023-02-02T12:05:52;12.70;67.70
64888;DHT22;51386;53.082;8.816;2023-02-02T12:08:20;12.50;68.00
64888;DHT22;51386;53.082;8.816;2023-02-02T12:10:55;12.40;68.50
64888;DHT22;51386;53.082;8.816;2023-02-02T12:16:48;12.20;69.00
64888;DHT22;51386;53.082;8.816;2023-02-02T12:19:36;12.10;69.30
64888;DHT22;51386;53.082;8.816;2023-02-02T12:22:23;12.00;70.10
64888;DHT22;51386;53.082;8.816;2023-02-02T12:25:08;11.90;70.40
64888;DHT22;51386;53.082;8.816;2023-02-02T12:27:56;11.90;70.70
64888;DHT22;51386;53.082;8.816;2023-02-02T12:30:35;11.80;71.10
64888;DHT22;51386;53.082;8.816;2023-02-02T12:33:20;11.80;71.40
64888;DHT22;51386;53.082;8.816;2023-02-02T12:36:19;11.80;71.70
64888;DHT22;51386;53.082;8.816;2023-02-02T12:39:19;11.90;71.90
64888;DHT22;51386;53.082;8.816;2023-02-02T12:45:04;11.90;72.00
64888;DHT22;51386;53.082;8.816;2023-02-02T12:47:50;11.90;71.80
64888;DHT22;51386;53.082;8.816;2023-02-02T12:50:30;11.90;71.90
64888;DHT22;51386;53.082;8.816;2023-02-02T12:53:27;11.90;72.20
64888;DHT22;51386;53.082;8.816;2023-02-02T12:56:15;11.90;72.20
64888;DHT22;51386;53.082;8.816;2023-02-02T12:58:55;12.00;72.50
64888;DHT22;51386;53.082;8.816;2023-02-02T13:01:49;12.00;72.20
64888;DHT22;51386;53.082;8.816;2023-02-02T13:04:43;12.10;71.90
64888;DHT22;51386;53.082;8.816;2023-02-02T13:07:30;12.10;71.50
64888;DHT22;51386;53.082;8.816;2023-02-02T13:10:10;12.10;70.90
64888;DHT22;51386;53.082;8.816;2023-02-02T13:12:46;12.20;71.10
64888;DHT22;51386;53.082;8.816;2023-02-02T13:15:21;12.40;71.00
64888;DHT22;51386;53.082;8.816;2023-02-02T13:17:53;12.50;70.40
64888;DHT22;51386;53.082;8.816;2023-02-02T13:20:30;12.70;70.20
64888;DHT22;51386;53.082;8.816;2023-02-02T13:23:08;12.80;70.20
64888;DHT22;51386;53.082;8.816;2023-02-02T13:25:42;13.00;69.30
64888;DHT22;51386;53.082;8.816;2023-02-02T13:28:18;13.10;68.00
64888;DHT22;51386;53.082;8.816;2023-02-02T13:30:56;13.10;66.70
64888;DHT22;51386;53.082;8.816;2023-02-02T13:33:31;13.10;66.70
64888;DHT22;51386;53.082;8.816;2023-02-02T13:36:05;13.00;66.30
64888;DHT22;51386;53.082;8.816;2023-02-02T13:38:40;12.90;67.00
64888;DHT22;51386;53.082;8.816;2023-02-02T13:41:09;12.80;66.10
64888;DHT22;51386;53.082;8.816;2023-02-02T13:43:47;12.70;66.20
64888;DHT22;51386;53.082;8.816;2023-02-02T13:46:27;12.60;66.40
64888;DHT22;51386;53.082;8.816;2023-02-02T13:49:04;12.50;66.40
64888;DHT22;51386;53.082;8.816;2023-02-02T13:51:45;12.40;66.70
64888;DHT22;51386;53.082;8.816;2023-02-02T13:54:56;12.30;67.10
64888;DHT22;51386;53.082;8.816;2023-02-02T14:00:55;12.20;67.10
64888;DHT22;51386;53.082;8.816;2023-02-02T14:03:34;12.10;67.30
64888;DHT22;51386;53.082;8.816;2023-02-02T14:06:12;12.10;67.60
64888;DHT22;51386;53.082;8.816;2023-02-02T14:08:47;12.00;68.20
64888;DHT22;51386;53.082;8.816;2023-02-02T14:11:22;12.00;68.60
64888;DHT22;51386;53.082;8.816;2023-02-02T14:13:55;12.00;68.30
64888;DHT22;51386;53.082;8.816;2023-02-02T14:16:47;11.90;68.50
64888;DHT22;51386;53.082;8.816;2023-02-02T14:19:49;11.90;68.40
64888;DHT22;51386;53.082;8.816;2023-02-02T14:22:42;11.90;68.20
64888;DHT22;51386;53.082;8.816;2023-02-02T14:25:46;11.90;67.80
64888;DHT22;51386;53.082;8.816;2023-02-02T14:28:39;11.90;67.50
64888;DHT22;51386;53.082;8.816;2023-02-02T14:31:50;11.80;67.50
64888;DHT22;51386;53.082;8.816;2023-02-02T14:34:33;11.80;67.40
64888;DHT22;51386;53.082;8.816;2023-02-02T14:37:33;11.70;67.50
64888;DHT22;51386;53.082;8.816;2023-02-02T14:40:28;11.70;67.40
64888;DHT22;51386;53.082;8.816;2023-02-02T14:43:13;11.60;67.60
64888;DHT22;51386;53.082;8.816;2023-02-02T14:46:31;11.60;67.80
64888;DHT22;51386;53.082;8.816;2023-02-02T14:49:15;11.60;68.20
64888;DHT22;51386;53.082;8.816;2023-02-02T14:51:52;11.50;68.50
64888;DHT22;51386;53.082;8.816;2023-02-02T14:54:31;11.50;68.80
64888;DHT22;51386;53.082;8.816;2023-02-02T14:57:03;11.50;69.10
64888;DHT22;51386;53.082;8.816;2023-02-02T14:59:47;11.40;69.10
64888;DHT22;51386;53.082;8.816;2023-02-02T15:02:17;11.40;70.20
64888;DHT22;51386;53.082;8.816;2023-02-02T15:04:48;11.40;69.70
64888;DHT22;51386;53.082;8.816;2023-02-02T15:07:35;11.30;69.80
64888;DHT22;51386;53.082;8.816;2023-02-02T15:13:35;11.20;70.00
64888;DHT22;51386;53.082;8.816;2023-02-02T15:16:29;11.20;70.20
64888;DHT22;51386;53.082;8.816;2023-02-02T15:19:11;11.10;70.50
64888;DHT22;51386;53.082;8.816;2023-02-02T15:22:22;11.10;70.70
64888;DHT22;51386;53.082;8.816;2023-02-02T15:24:58;11.00;70.70
64888;DHT22;51386;53.082;8.816;2023-02-02T15:27:36;11.00;70.80
64888;DHT22;51386;53.082;8.816;2023-02-02T15:30:21;11.00;71.00
64888;DHT22;51386;53.082;8.816;2023-02-02T15:32:54;10.90;71.20
64888;DHT22;51386;53.082;8.816;2023-02-02T15:35:23;10.90;71.20
64888;DHT22;51386;53.082;8.816;2023-02-02T15:37:57;10.90;71.20
64888;DHT22;51386;53.082;8.816;2023-02-02T15:40:29;10.90;71.40
64888;DHT22;51386;53.082;8.816;2023-02-02T15:43:01;10.80;71.20
64888;DHT22;51386;53.082;8.816;2023-02-02T15:45:35;10.80;71.60
64888;DHT22;51386;53.082;8.816;2023-02-02T15:48:18;10.80;71.80
64888;DHT22;51386;53.082;8.816;2023-02-02T15:50:50;10.80;72.10
64888;DHT22;51386;53.082;8.816;2023-02-02T15:53:24;10.70;72.10
64888;DHT22;51386;53.082;8.816;2023-02-02T15:55:54;10.70;72.30
64888;DHT22;51386;53.082;8.816;2023-02-02T15:58:29;10.70;72.40
64888;DHT22;51386;53.082;8.816;2023-02-02T16:01:00;10.70;72.70
64888;DHT22;51386;53.082;8.816;2023-02-02T16:03:34;10.70;72.50
64888;DHT22;51386;53.082;8.816;2023-02-02T16:06:07;10.70;72.60
64888;DHT22;51386;53.082;8.816;2023-02-02T16:08:36;10.70;72.80
64888;DHT22;51386;53.082;8.816;2023-02-02T16:11:09;10.70;73.00
64888;DHT22;51386;53.082;8.816;2023-02-02T16:13:40;10.70;73.30
64888;DHT22;51386;53.082;8.816;2023-02-02T16:16:21;10.70;73.60
64888;DHT22;51386;53.082;8.816;2023-02-02T16:19:11;10.60;73.70
64888;DHT22;51386;53.082;8.816;2023-02-02T16:21:45;10.60;73.70
64888;DHT22;51386;53.082;8.816;2023-02-02T16:24:21;10.60;74.10
64888;DHT22;51386;53.082;8.816;2023-02-02T16:26:51;10.60;74.30
64888;DHT22;51386;53.082;8.816;2023-02-02T16:29:21;10.60;74.40
64888;DHT22;51386;53.082;8.816;2023-02-02T16:31:50;10.60;74.50
64888;DHT22;51386;53.082;8.816;2023-02-02T16:34:18;10.50;74.70
64888;DHT22;51386;53.082;8.816;2023-02-02T16:37:14;10.50;75.00
64888;DHT22;51386;53.082;8.816;2023-02-02T16:39:43;10.50;75.20